Chippewa Flowage Level & Statistics for May 2005

ARCHIVE RECORDS
* In Feet Above Sea Level
** In Cubic Feet per Second previous 24 hours
np= No precipitation
ws= Wind Stacking (wind blowing out of the Northwest causing artificially high reading)
SOURCE: LCO HydroElectric Records & USGS Bishop's Bridge Readings.
Date Time Temp/Precip Flowage Level * Out Flow**  Notes
May 1, 2005 06:00 nr  1312.54 700 CFS (LCO) Flowage down .06' last 24 hours
May 2, 2005 06:00 nr  1312. 700 CFS (LCO) Flowage down .06' last 24 hours
May 3, 2005 06:00 nr  1312.56 700 CFS (LCO) Flowage down .01' last 24 hours
May 4, 2005 06:00 nr  1312.53 682 CFS (LCO) Flowage down .03' last 24 hours
May 5, 2005 06:00 nr  1312.50 500 CFS (LCO) Flowage down .03' last 24 hours
May 6, 2005 06:00 nr  1312.48 500 CFS (LCO) Flowage down .02' last 24 hours
May 7, 2005 06:00 nr  1312.47 500 CFS (LCO) Flowage down .01' last 24 hours
May 8, 2005 06:00 nr .24" 1312.45 500 CFS (LCO) Flowage down .02' last 24 hours
May 9, 2005 06:00 nr  1312.50 500 CFS (LCO) Flowage up .05' last 24 hours
May 10, 2005 06:00 nr 1.31" 1312.51 500 CFS (LCO) Flowage up .01' last 24 hours
May 11, 2005 06:00 nr .12" 1312.50 500 CFS (LCO) Flowage down .01' last 24 hours
May 12, 2005 06:00 nr  1312.50 500 CFS (LCO) Flowage unchanged the last 24 hours
May 13, 2005 06:00 nr .77" 1312.58 500 CFS (LCO) Flowage up .08' last 24 hours
May 14, 2005 06:00 nr .32" 1312.64 500 CFS (LCO) Flowage up .06' last 24 hours
May 15, 2005 06:00 nr .36 1312.67 500 CFS (LCO) Flowage up .03' last 24 hours
May 16, 2005 06:00 nr .08 1312.67 617 CFS (LCO) Flowage unchanged the last 24 hours
May 17, 2005 06:00 nr  1312.67 800 CFS (LCO) Flowage down .01' last 24 hours
May 18, 2005 06:00 nr  1312.66 866 CFS (LCO) Flowage down .06' last 24 hours
May 19, 2005 06:00 nr .37" 1312.67 900 CFS (LCO) Flowage up .01' last 24 hours
May 20, 2005 06:00 nr 1.16" 1312.67 900 CFS (LCO) Flowage unchanged the last 24 hours
May 21, 2005 06:00 nr  1312.66 900 CFS (LCO) Flowage down .06' last 24 hours
May 22, 2005 06:00 nr  1312.66 900 CFS (LCO) Flowage unchanged the last 24 hours
May 23, 2005 06:00 nr  1312.63 900 CFS (LCO) Flowage down .02' last 24 hours
May 24, 2005 06:00 nr  1312.61 990 CFS (LCO) Flowage down .02' last 24 hours
May 25, 2005 06:00 nr  1312.57 1100 CFS (LCO) Flowage down .04' last 24 hours
May 26, 2005 06:00 nr .27" 1312.52 1100 CFS (LCO) Flowage down .05' last 24 hours
May 27, 2005 06:00 nr .13" 1312.48 985 CFS (LCO) Flowage down .04' last 24 hours
May 28, 2005 06:00 nr .59" 1312.46 900 CFS (LCO) Flowage down .02' last 24 hours
May 29, 2005 06:00 nr .08" 1312.41 900 CFS (LCO) Flowage down .05' last 24 hours
May 30, 2005 06:00 nr .06" 1313.36 900 CFS (LCO) Flowage down .05' last 24 hours
May 31, 2005 06:00 nr 1312.31 773 CFS (LCO) Flowage down .05' last 24 hours


INVASIVE SPECIES AND WATER QUALITY CONCERNS
SAWYER COUNTY ZONING SUMMARY (PDF file)
AUGUST 2007 CHIPPEWA FLOWAGE FISHERY MANAGEMENT PLAN (PDF file)
 (NOTE: The Chippewa Flowage Lake Association does not endorse this management plan and we note that the water level comments in the plan do not concur with  Federal Energy Regulatory Commissions requirements.)
If you have any corrections, comments or possible additions please contact me.


Home Page    Current Month's Lake Level & Statistics    Archived Lake Levels
 Objectives                 By-Laws           Issues         History
 Pictures      Lake Level and River Flow Standards          Canoeing Conditions
Flowage Boat Ramp/Access    Camping on the Flowage     Useful Links & Local Information
Fishing the Flowage     Membership Application (PDF file)   Snowmobiling the Flowage